Observation data for Olton on 04/24/2019      Previous  Date  Next       Current Mesonet Observations  Soil Data  Daily Summary Page  Observations in Plain Language
KONS 240500Z 03006KT 08/07 A3005 RMK A01 T00830070  RH  093%=      5-min Rain = 0
KONS 240505Z 02006KT 08/07 A3005 RMK A01 T00830071  RH  094%=      5-min Rain = 0
KONS 240510Z 01006KT 08/07 A3005 RMK A01 T00830072  RH  094%=      5-min Rain = 0
KONS 240515Z 01007KT 08/07 A3005 RMK A01 T00840072  RH  094%=      5-min Rain = 0
KONS 240520Z 00006KT 09/07 A3005 RMK A01 T00850072  RH  093%=      5-min Rain = 0
KONS 240525Z 00007KT 08/07 A3004 RMK A01 T00840071  RH  093%=      5-min Rain = 0
KONS 240530Z 36008KT 09/07 A3004 RMK A01 T00850072  RH  093%=      5-min Rain = 0
KONS 240535Z 00008KT 09/07 A3003 RMK A01 T00860072  RH  092%=      5-min Rain = 0
KONS 240540Z 00008KT 09/07 A3003 RMK A01 T00860071  RH  092%=      5-min Rain = 0
KONS 240545Z 00008KT 09/07 A3003 RMK A01 T00860070  RH  091%=      5-min Rain = 0
KONS 240550Z 01008KT 09/07 A3003 RMK A01 T00860068  RH  090%=      5-min Rain = 0
KONS 240555Z 01007KT 09/07 A3003 RMK A01 T00860067  RH  089%=      5-min Rain = 0
KONS 240600Z 01007KT 09/07 A3003 RMK A01 T00850065  RH  089%=      5-min Rain = 0
KONS 240605Z 01008KT 08/06 A3003 RMK A01 T00840064  RH  088%=      5-min Rain = 0
KONS 240610Z 02006KT 08/06 A3003 RMK A01 T00840063  RH  088%=      5-min Rain = 0
KONS 240615Z 01006KT 08/06 A3003 RMK A01 T00830061  RH  088%=      5-min Rain = 0
KONS 240620Z 01007KT 08/06 A3002 RMK A01 T00810060  RH  088%=      5-min Rain = 0
KONS 240625Z 01008KT 08/06 A3002 RMK A01 T00810060  RH  088%=      5-min Rain = 0
KONS 240630Z 01008KT 08/06 A3001 RMK A01 T00800059  RH  088%=      5-min Rain = 0
KONS 240635Z 01008KT 08/06 A3001 RMK A01 T00790058  RH  088%=      5-min Rain = 0
KONS 240640Z 00007KT 08/06 A3002 RMK A01 T00780058  RH  089%=      5-min Rain = 0
KONS 240645Z 00008KT 08/06 A3001 RMK A01 T00770058  RH  089%=      5-min Rain = 0
KONS 240650Z 01009KT 08/06 A3001 RMK A01 T00760057  RH  089%=      5-min Rain = 0
KONS 240655Z 01006KT 08/06 A3001 RMK A01 T00750056  RH  089%=      5-min Rain = 0
KONS 240700Z 01007KT 08/06 A3001 RMK A01 T00750057  RH  090%=      5-min Rain = 0
KONS 240705Z 00007KT 08/06 A30 RMK A01 T00750057  RH  089%=      5-min Rain = 0
KONS 240710Z 00007KT 08/06 A3001 RMK A01 T00750056  RH  089%=      5-min Rain = 0
KONS 240715Z 01007KT 08/06 A3001 RMK A01 T00750056  RH  089%=      5-min Rain = 0
KONS 240720Z 01007KT 07/06 A3002 RMK A01 T00740055  RH  089%=      5-min Rain = 0
KONS 240725Z 02006KT 07/05 A3002 RMK A01 T00730053  RH  089%=      5-min Rain = 0
KONS 240730Z 04005KT 07/05 A3003 RMK A01 T00700051  RH  089%=      5-min Rain = 0
KONS 240735Z 06003KT 07/05 A3003 RMK A01 T00670048  RH  089%=      5-min Rain = 0
KONS 240740Z 07003KT 07/05 A3003 RMK A01 T00650047  RH  090%=      5-min Rain = 0
KONS 240745Z 08004KT 06/05 A3003 RMK A01 T00640047  RH  090%=      5-min Rain = 0
KONS 240750Z 09003KT 06/05 A3003 RMK A01 T00640047  RH  090%=      5-min Rain = 0
KONS 240755Z 04003KT 06/05 A3002 RMK A01 T00640048  RH  091%=      5-min Rain = 0
KONS 240800Z 01004KT 06/05 A3002 RMK A01 T00630046  RH  090%=      5-min Rain = 0
KONS 240805Z 02003KT 06/05 A3001 RMK A01 T00610045  RH  091%=      5-min Rain = 0
KONS 240810Z 04003KT 06/05 A3002 RMK A01 T00610046  RH  091%=      5-min Rain = 0
KONS 240815Z 06003KT 06/05 A3002 RMK A01 T00610046  RH  091%=      5-min Rain = 0
KONS 240820Z 08004KT 06/05 A3002 RMK A01 T00610045  RH  091%=      5-min Rain = 0
KONS 240825Z 07004KT 06/04 A3001 RMK A01 T00590044  RH  091%=      5-min Rain = 0
KONS 240830Z 07005KT 06/04 A3001 RMK A01 T00570042  RH  091%=      5-min Rain = 0
KONS 240835Z 09007KT 06/04 A3001 RMK A01 T00560042  RH  092%=      5-min Rain = 0
KONS 240840Z 09008KT 06/05 A3001 RMK A01 T00580045  RH  093%=      5-min Rain = 0
KONS 240845Z 08006KT 06/04 A3001 RMK A01 T00570044  RH  092%=      5-min Rain = 0
KONS 240850Z 08005KT 06/04 A3001 RMK A01 T00560042  RH  092%=      5-min Rain = 0.01
KONS 240855Z 08005KT 05/04 A3001 RMK A01 T00540041  RH  092%=      5-min Rain = 0
KONS 240900Z 07004KT 05/04 A3001 RMK A01 T00540041  RH  092%=      5-min Rain = 0
KONS 240905Z 04004KT 05/04 A30 RMK A01 T00540041  RH  092%=      5-min Rain = 0
KONS 240910Z 03004KT 05/04 A30 RMK A01 T00530040  RH  092%=      5-min Rain = 0
KONS 240915Z 03004KT 05/04 A30 RMK A01 T00520039  RH  093%=      5-min Rain = 0
KONS 240920Z 02003KT 05/04 A30 RMK A01 T00520039  RH  093%=      5-min Rain = 0
KONS 240925Z 01003KT 05/04 A30 RMK A01 T00510038  RH  093%=      5-min Rain = 0
KONS 240930Z 02003KT 05/04 A30 RMK A01 T00510039  RH  093%=      5-min Rain = 0
KONS 240935Z 01004KT 05/04 A30 RMK A01 T00520040  RH  093%=      5-min Rain = 0
KONS 240940Z 36004KT 05/04 A3001 RMK A01 T00500038  RH  093%=      5-min Rain = 0
KONS 240945Z 00001KT 05/04 A3002 RMK A01 T00490037  RH  093%=      5-min Rain = 0
KONS 240950Z 00000KT 05/04 A3002 RMK A01 T00490038  RH  093%=      5-min Rain = 0
KONS 240955Z 00000KT 05/04 A3003 RMK A01 T00510040  RH  094%=      5-min Rain = 0
KONS 241000Z 21001KT 05/04 A3003 RMK A01 T00520040  RH  093%=      5-min Rain = 0
KONS 241005Z 19002KT 05/04 A3003 RMK A01 T00490037  RH  093%=      5-min Rain = 0
KONS 241010Z 17001KT 05/04 A3003 RMK A01 T00480036  RH  093%=      5-min Rain = 0
KONS 241015Z 13001KT 05/04 A3003 RMK A01 T00470036  RH  094%=      5-min Rain = 0
KONS 241020Z 10000KT 05/04 A3002 RMK A01 T00490038  RH  094%=      5-min Rain = 0
KONS 241025Z 00000KT 05/04 A3002 RMK A01 T00470035  RH  094%=      5-min Rain = 0
KONS 241030Z 33002KT 05/03 A3001 RMK A01 T00450034  RH  094%=      5-min Rain = 0
KONS 241035Z 32003KT 05/03 A3001 RMK A01 T00450034  RH  094%=      5-min Rain = 0
KONS 241040Z 30003KT 05/04 A3001 RMK A01 T00460035  RH  094%=      5-min Rain = 0
KONS 241045Z 29004KT 05/04 A3001 RMK A01 T00450035  RH  094%=      5-min Rain = 0
KONS 241050Z 28005KT 05/04 A3001 RMK A01 T00450035  RH  094%=      5-min Rain = 0
KONS 241055Z 28005KT 05/04 A3001 RMK A01 T00450035  RH  094%=      5-min Rain = 0
KONS 241100Z 29005KT 05/03 A30 RMK A01 T00450034  RH  094%=      5-min Rain = 0
KONS 241105Z 29005KT 04/03 A30 RMK A01 T00430033  RH  094%=      5-min Rain = 0
KONS 241110Z 29005KT 04/03 A2999 RMK A01 T00420032  RH  094%=      5-min Rain = 0
KONS 241115Z 29005KT 04/03 A2999 RMK A01 T00420032  RH  094%=      5-min Rain = 0
KONS 241120Z 30004KT 04/03 A2999 RMK A01 T00420031  RH  094%=      5-min Rain = 0
KONS 241125Z 31004KT 04/03 A2999 RMK A01 T00410031  RH  094%=      5-min Rain = 0
KONS 241130Z 31003KT 04/03 A2999 RMK A01 T00410031  RH  094%=      5-min Rain = 0
KONS 241135Z 30004KT 04/03 A2999 RMK A01 T00410032  RH  095%=      5-min Rain = 0
KONS 241140Z 31004KT 04/03 A2999 RMK A01 T00420032  RH  095%=      5-min Rain = 0
KONS 241145Z 32004KT 04/03 A2998 RMK A01 T00410031  RH  094%=      5-min Rain = 0
KONS 241150Z 31004KT 04/03 A2998 RMK A01 T00410031  RH  094%=      5-min Rain = 0
KONS 241155Z 32006KT 04/03 A2998 RMK A01 T00400031  RH  094%=      5-min Rain = 0
KONS 241200Z 31005KT 04/03 A2999 RMK A01 T00400030  RH  095%=      5-min Rain = 0
KONS 241205Z 31005KT 04/03 A2999 RMK A01 T00410032  RH  095%=      5-min Rain = 0
KONS 241210Z 31004KT 04/03 A2999 RMK A01 T00420033  RH  095%=      5-min Rain = 0
KONS 241215Z 31004KT 04/03 A30 RMK A01 T00430034  RH  095%=      5-min Rain = 0
KONS 241220Z 30004KT 04/03 A30 RMK A01 T00430033  RH  095%=      5-min Rain = 0
KONS 241225Z 29004KT 04/03 A3001 RMK A01 T00430034  RH  095%=      5-min Rain = 0
KONS 241230Z 29003KT 04/03 A3001 RMK A01 T00440034  RH  095%=      5-min Rain = 0
KONS 241235Z 28002KT 04/04 A3001 RMK A01 T00440035  RH  095%=      5-min Rain = 0
KONS 241240Z 29002KT 05/04 A3002 RMK A01 T00450036  RH  095%=      5-min Rain = 0
KONS 241245Z 30002KT 05/04 A3002 RMK A01 T00470037  RH  095%=      5-min Rain = 0
KONS 241250Z 31003KT 05/04 A3002 RMK A01 T00500041  RH  095%=      5-min Rain = 0
KONS 241255Z 31003KT 05/04 A3002 RMK A01 T00530044  RH  095%=      5-min Rain = 0
KONS 241300Z 31004KT 06/05 A3001 RMK A01 T00570047  RH  095%=      5-min Rain = 0
KONS 241305Z 31004KT 06/05 A3001 RMK A01 T00610051  RH  095%=      5-min Rain = 0
KONS 241310Z 31004KT 06/05 A3001 RMK A01 T00620052  RH  094%=      5-min Rain = 0
KONS 241315Z 31004KT 06/05 A3001 RMK A01 T00630051  RH  094%=      5-min Rain = 0
KONS 241320Z 31004KT 06/05 A3001 RMK A01 T00640052  RH  094%=      5-min Rain = 0
KONS 241325Z 30006KT 07/05 A3001 RMK A01 T00660054  RH  094%=      5-min Rain = 0
KONS 241330Z 30006KT 07/06 A3001 RMK A01 T00690057  RH  094%=      5-min Rain = 0
KONS 241335Z 29006KT 07/06 A3001 RMK A01 T00700058  RH  093%=      5-min Rain = 0
KONS 241340Z 29006KT 07/06 A3001 RMK A01 T00720060  RH  093%=      5-min Rain = 0
KONS 241345Z 29006KT 08/06 A3001 RMK A01 T00750062  RH  093%=      5-min Rain = 0
KONS 241350Z 30006KT 08/07 A3001 RMK A01 T00800067  RH  093%=      5-min Rain = 0
KONS 241355Z 30007KT 08/07 A3001 RMK A01 T00810065  RH  091%=      5-min Rain = 0
KONS 241400Z 31007KT 08/07 A3001 RMK A01 T00830065  RH  090%=      5-min Rain = 0
KONS 241405Z 31007KT 09/06 A3001 RMK A01 T00850064  RH  088%=      5-min Rain = 0
KONS 241410Z 31007KT 09/07 A3001 RMK A01 T00880065  RH  086%=      5-min Rain = 0
KONS 241415Z 31007KT 09/07 A3001 RMK A01 T00900065  RH  085%=      5-min Rain = 0
KONS 241420Z 31008KT 09/07 A3001 RMK A01 T00920065  RH  084%=      5-min Rain = 0
KONS 241425Z 31008KT 10/07 A3001 RMK A01 T00950067  RH  084%=      5-min Rain = 0
KONS 241430Z 31008KT 10/07 A30 RMK A01 T00970067  RH  083%=      5-min Rain = 0
KONS 241435Z 31009KT 10/07 A2999 RMK A01 T00980066  RH  082%=      5-min Rain = 0
KONS 241440Z 31009KT 10/07 A2999 RMK A01 T01000069  RH  082%=      5-min Rain = 0
KONS 241445Z 30010KT 10/07 A2998 RMK A01 T01020069  RH  081%=      5-min Rain = 0
KONS 241450Z 30009KT 10/07 A2999 RMK A01 T01040069  RH  080%=      5-min Rain = 0
KONS 241455Z 30008KT 11/07 A30 RMK A01 T01060070  RH  080%=      5-min Rain = 0
KONS 241500Z 30007KT 11/07 A30 RMK A01 T01070069  RH  078%=      5-min Rain = 0
KONS 241505Z 31008KT 11/07 A30 RMK A01 T01100072  RH  078%=      5-min Rain = 0
KONS 241510Z 30009KT 11/07 A2999 RMK A01 T01130073  RH  077%=      5-min Rain = 0
KONS 241515Z 30009KT 12/07 A30 RMK A01 T01160072  RH  076%=      5-min Rain = 0
KONS 241520Z 31009KT 12/07 A2999 RMK A01 T01160070  RH  074%=      5-min Rain = 0
KONS 241525Z 30010KT 12/07 A2999 RMK A01 T01180072  RH  074%=      5-min Rain = 0
KONS 241530Z 30009KT 12/07 A30 RMK A01 T01200070  RH  073%=      5-min Rain = 0
KONS 241535Z 30008KT 12/07 A30 RMK A01 T01230073  RH  073%=      5-min Rain = 0
KONS 241540Z 29009KT 13/07 A30 RMK A01 T01250072  RH  071%=      5-min Rain = 0
KONS 241545Z 29008KT 13/07 A30 RMK A01 T01270072  RH  070%=      5-min Rain = 0
KONS 241550Z 30007KT 13/07 A3001 RMK A01 T01280071  RH  069%=      5-min Rain = 0
KONS 241555Z 30007KT 13/07 A3001 RMK A01 T01280071  RH  069%=      5-min Rain = 0
KONS 241600Z 30007KT 13/07 A3001 RMK A01 T01320071  RH  067%=      5-min Rain = 0
KONS 241605Z 30007KT 13/07 A3001 RMK A01 T01320071  RH  068%=      5-min Rain = 0
KONS 241610Z 29005KT 13/07 A3001 RMK A01 T01330072  RH  068%=      5-min Rain = 0
KONS 241615Z 30006KT 14/07 A3001 RMK A01 T01360072  RH  066%=      5-min Rain = 0
KONS 241620Z 30004G10KT 14/07 A3002 RMK A01 T01360071  RH  066%=      5-min Rain = 0
KONS 241625Z 30005KT 14/07 A3002 RMK A01 T01360069  RH  065%=      5-min Rain = 0
KONS 241630Z 30005KT 14/07 A3001 RMK A01 T01380072  RH  065%=      5-min Rain = 0
KONS 241635Z 30006KT 14/07 A3001 RMK A01 T01400074  RH  066%=      5-min Rain = 0
KONS 241640Z 29005KT 14/07 A3001 RMK A01 T01400074  RH  065%=      5-min Rain = 0
KONS 241645Z 28006KT 14/08 A3001 RMK A01 T01420076  RH  066%=      5-min Rain = 0
KONS 241650Z 29007KT 14/08 A3001 RMK A01 T01440077  RH  065%=      5-min Rain = 0
KONS 241655Z 30005KT 15/08 A3001 RMK A01 T01450075  RH  064%=      5-min Rain = 0
KONS 241700Z 32006KT 15/07 A30 RMK A01 T01460074  RH  063%=      5-min Rain = 0
KONS 241705Z 32004G9KT 15/08 A30 RMK A01 T01480077  RH  063%=      5-min Rain = 0
KONS 241710Z 29006KT 15/08 A30 RMK A01 T01490075  RH  062%=      5-min Rain = 0
KONS 241715Z 29006KT 15/08 A30 RMK A01 T01500079  RH  063%=      5-min Rain = 0
KONS 241720Z 28005KT 15/08 A30 RMK A01 T01520077  RH  062%=      5-min Rain = 0
KONS 241725Z 01005KT 15/07 A30 RMK A01 T01520074  RH  060%=      5-min Rain = 0
KONS 241730Z 33005KT 15/08 A30 RMK A01 T01530075  RH  060%=      5-min Rain = 0
KONS 241735Z 27003KT 15/07 A30 RMK A01 T01530074  RH  060%=      5-min Rain = 0
KONS 241740Z 25003KT 16/07 A30 RMK A01 T01560071  RH  058%=      5-min Rain = 0
KONS 241745Z 26003G8KT 16/08 A2999 RMK A01 T01590078  RH  059%=      5-min Rain = 0
KONS 241750Z 27004KT 16/08 A2999 RMK A01 T01600076  RH  058%=      5-min Rain = 0
KONS 241755Z 33004KT 16/08 A2999 RMK A01 T01600077  RH  059%=      5-min Rain = 0
KONS 241800Z 32002KT 16/08 A2999 RMK A01 T01600075  RH  058%=      5-min Rain = 0
KONS 241805Z 34005KT 16/08 A2999 RMK A01 T01580077  RH  059%=      5-min Rain = 0
KONS 241810Z 25003KT 16/08 A2998 RMK A01 T01600077  RH  059%=      5-min Rain = 0
KONS 241815Z 31002KT 16/08 A2998 RMK A01 T01620078  RH  059%=      5-min Rain = 0
KONS 241820Z 27005KT 16/08 A2998 RMK A01 T01620076  RH  057%=      5-min Rain = 0
KONS 241825Z 25003KT 16/08 A2997 RMK A01 T01620081  RH  059%=      5-min Rain = 0
KONS 241830Z 27003KT 17/08 A2997 RMK A01 T01670080  RH  057%=      5-min Rain = 0
KONS 241835Z 30002KT 17/07 A2997 RMK A01 T01700074  RH  054%=      5-min Rain = 0
KONS 241840Z 34003KT 17/07 A2997 RMK A01 T01680073  RH  054%=      5-min Rain = 0
KONS 241845Z 33005KT 17/08 A2997 RMK A01 T01670078  RH  057%=      5-min Rain = 0
KONS 241850Z 34004G14KT 17/08 A2997 RMK A01 T01670080  RH  057%=      5-min Rain = 0
KONS 241855Z 29006KT 17/08 A2997 RMK A01 T01660075  RH  056%=      5-min Rain = 0
KONS 241900Z 31005KT 17/07 A2996 RMK A01 T01690073  RH  054%=      5-min Rain = 0
KONS 241905Z 33003KT 17/07 A2996 RMK A01 T01700072  RH  053%=      5-min Rain = 0
KONS 241910Z 31007KT 17/07 A2996 RMK A01 T01700071  RH  053%=      5-min Rain = 0
KONS 241915Z 30004KT 17/08 A2996 RMK A01 T01700075  RH  055%=      5-min Rain = 0
KONS 241920Z 29004G9KT 17/08 A2996 RMK A01 T01740077  RH  054%=      5-min Rain = 0
KONS 241925Z 31009KT 18/08 A2995 RMK A01 T01760079  RH  054%=      5-min Rain = 0
KONS 241930Z 30005KT 18/07 A2995 RMK A01 T01750074  RH  052%=      5-min Rain = 0
KONS 241935Z 29006KT 18/07 A2995 RMK A01 T01750073  RH  052%=      5-min Rain = 0
KONS 241940Z 31007KT 18/07 A2995 RMK A01 T01760073  RH  052%=      5-min Rain = 0
KONS 241945Z 30008G14KT 18/07 A2994 RMK A01 T01780071  RH  050%=      5-min Rain = 0
KONS 241950Z 29007G12KT 18/08 A2994 RMK A01 T01770075  RH  052%=      5-min Rain = 0
KONS 241955Z 32005G10KT 18/07 A2994 RMK A01 T01800073  RH  050%=      5-min Rain = 0
KONS 242000Z 29006KT 18/08 A2994 RMK A01 T01780076  RH  052%=      5-min Rain = 0
KONS 242005Z 29006KT 18/07 A2994 RMK A01 T01830074  RH  050%=      5-min Rain = 0
KONS 242010Z 29005KT 18/07 A2994 RMK A01 T01810071  RH  049%=      5-min Rain = 0
KONS 242015Z 31005KT 18/07 A2994 RMK A01 T01790073  RH  051%=      5-min Rain = 0
KONS 242020Z 28003G8KT 18/08 A2993 RMK A01 T01840077  RH  051%=      5-min Rain = 0
KONS 242025Z 31006G12KT 19/07 A2993 RMK A01 T01850074  RH  049%=      5-min Rain = 0
KONS 242030Z 33003G8KT 18/07 A2993 RMK A01 T01790070  RH  050%=      5-min Rain = 0
KONS 242035Z 02003KT 18/07 A2993 RMK A01 T01810072  RH  050%=      5-min Rain = 0
KONS 242040Z 34003KT 19/08 A2993 RMK A01 T01860076  RH  050%=      5-min Rain = 0
KONS 242045Z 27005KT 19/07 A2993 RMK A01 T01880071  RH  047%=      5-min Rain = 0
KONS 242050Z 29002KT 18/07 A2993 RMK A01 T01840070  RH  048%=      5-min Rain = 0
KONS 242055Z 32006G11KT 19/08 A2992 RMK A01 T01860077  RH  050%=      5-min Rain = 0
KONS 242100Z 28008KT 19/08 A2992 RMK A01 T01940076  RH  047%=      5-min Rain = 0
KONS 242105Z 30005KT 19/07 A2992 RMK A01 T01920072  RH  046%=      5-min Rain = 0
KONS 242110Z 31004KT 19/07 A2991 RMK A01 T01890067  RH  046%=      5-min Rain = 0
KONS 242115Z 36002KT 19/07 A2991 RMK A01 T01870071  RH  047%=      5-min Rain = 0
KONS 242120Z 21004KT 19/08 A2991 RMK A01 T01920075  RH  047%=      5-min Rain = 0
KONS 242125Z 25006KT 19/08 A2991 RMK A01 T01940078  RH  048%=      5-min Rain = 0
KONS 242130Z 27005KT 19/07 A299 RMK A01 T01930071  RH  046%=      5-min Rain = 0
KONS 242135Z 31002KT 19/07 A299 RMK A01 T01910069  RH  046%=      5-min Rain = 0
KONS 242140Z 31007G13KT 19/07 A299 RMK A01 T01940073  RH  046%=      5-min Rain = 0
KONS 242145Z 32010KT 20/07 A299 RMK A01 T01950073  RH  046%=      5-min Rain = 0
KONS 242150Z 31008KT 19/07 A2989 RMK A01 T01890073  RH  047%=      5-min Rain = 0
KONS 242155Z 30005KT 20/08 A2989 RMK A01 T01950077  RH  047%=      5-min Rain = 0
KONS 242200Z 31007KT 20/07 A2989 RMK A01 T01970073  RH  045%=      5-min Rain = 0
KONS 242205Z 29006KT 20/08 A2989 RMK A01 T01990075  RH  045%=      5-min Rain = 0
KONS 242210Z 28006KT 20/07 A2989 RMK A01 T02000073  RH  044%=      5-min Rain = 0
KONS 242215Z 30008KT 20/08 A2989 RMK A01 T02020077  RH  045%=      5-min Rain = 0
KONS 242220Z 31006KT 20/07 A2989 RMK A01 T01980073  RH  045%=      5-min Rain = 0
KONS 242225Z 28005KT 20/07 A2988 RMK A01 T01960073  RH  046%=      5-min Rain = 0
KONS 242230Z 31008G13KT 20/07 A2988 RMK A01 T02000073  RH  044%=      5-min Rain = 0
KONS 242235Z 33008KT 20/07 A2988 RMK A01 T02000073  RH  044%=      5-min Rain = 0
KONS 242240Z 29006G11KT 20/07 A2988 RMK A01 T01960074  RH  046%=      5-min Rain = 0
KONS 242245Z 30008KT 20/07 A2988 RMK A01 T01980069  RH  044%=      5-min Rain = 0
KONS 242250Z 30007KT 20/07 A2988 RMK A01 T02010072  RH  044%=      5-min Rain = 0
KONS 242255Z 32007KT 20/07 A2988 RMK A01 T01990070  RH  044%=      5-min Rain = 0
KONS 242300Z 31007G12KT 20/07 A2989 RMK A01 T01990066  RH  042%=      5-min Rain = 0
KONS 242305Z 31006KT 20/07 A2989 RMK A01 T01950071  RH  045%=      5-min Rain = 0
KONS 242310Z 32009KT 20/07 A2988 RMK A01 T01970069  RH  044%=      5-min Rain = 0
KONS 242315Z 30007KT 20/07 A2989 RMK A01 T02000067  RH  042%=      5-min Rain = 0
KONS 242320Z 30007KT 20/07 A2989 RMK A01 T02010067  RH  042%=      5-min Rain = 0
KONS 242325Z 30008KT 20/07 A2988 RMK A01 T02010067  RH  042%=      5-min Rain = 0
KONS 242330Z 29006KT 20/07 A2988 RMK A01 T02020067  RH  042%=      5-min Rain = 0
KONS 242335Z 30007KT 20/07 A2988 RMK A01 T02010068  RH  043%=      5-min Rain = 0
KONS 242340Z 31006KT 20/07 A2988 RMK A01 T02000071  RH  044%=      5-min Rain = 0
KONS 242345Z 30005KT 20/07 A2988 RMK A01 T02010066  RH  042%=      5-min Rain = 0
KONS 242350Z 32004KT 20/07 A2988 RMK A01 T02020067  RH  042%=      5-min Rain = 0
KONS 242355Z 33004KT 20/07 A2988 RMK A01 T02010067  RH  042%=      5-min Rain = 0
KONS 250000Z 31006KT 20/07 A2988 RMK A01 T02020069  RH  043%=      5-min Rain = 0
KONS 250005Z 31007KT 20/07 A2988 RMK A01 T02020071  RH  043%=      5-min Rain = 0
KONS 250010Z 30006KT 20/07 A2988 RMK A01 T02000070  RH  043%=      5-min Rain = 0
KONS 250015Z 31006KT 20/07 A2988 RMK A01 T01990067  RH  043%=      5-min Rain = 0
KONS 250020Z 31005KT 20/07 A2988 RMK A01 T01990068  RH  043%=      5-min Rain = 0
KONS 250025Z 31005KT 20/07 A2988 RMK A01 T01990072  RH  044%=      5-min Rain = 0
KONS 250030Z 32005KT 20/07 A2988 RMK A01 T01980072  RH  045%=      5-min Rain = 0
KONS 250035Z 31005KT 20/08 A2987 RMK A01 T01970076  RH  046%=      5-min Rain = 0
KONS 250040Z 31006KT 20/08 A2987 RMK A01 T01960077  RH  047%=      5-min Rain = 0
KONS 250045Z 31004KT 19/08 A2988 RMK A01 T01940082  RH  049%=      5-min Rain = 0
KONS 250050Z 30003KT 19/09 A2988 RMK A01 T01930088  RH  052%=      5-min Rain = 0
KONS 250055Z 30004KT 19/09 A2987 RMK A01 T01900090  RH  053%=      5-min Rain = 0
KONS 250100Z 29003KT 19/09 A2987 RMK A01 T01880090  RH  054%=      5-min Rain = 0
KONS 250105Z 28003KT 19/10 A2987 RMK A01 T01850095  RH  056%=      5-min Rain = 0
KONS 250110Z 29004KT 18/09 A2987 RMK A01 T01840091  RH  056%=      5-min Rain = 0
KONS 250115Z 30004KT 18/09 A2987 RMK A01 T01820092  RH  056%=      5-min Rain = 0
KONS 250120Z 31003KT 18/09 A2987 RMK A01 T01790094  RH  058%=      5-min Rain = 0
KONS 250125Z 31003KT 18/10 A2988 RMK A01 T01760096  RH  061%=      5-min Rain = 0
KONS 250130Z 31002KT 17/09 A2988 RMK A01 T01730094  RH  061%=      5-min Rain = 0
KONS 250135Z 31001KT 17/09 A2988 RMK A01 T01710091  RH  060%=      5-min Rain = 0
KONS 250140Z 31001KT 17/09 A2988 RMK A01 T01720087  RH  058%=      5-min Rain = 0
KONS 250145Z 31001KT 17/09 A2988 RMK A01 T01710089  RH  059%=      5-min Rain = 0
KONS 250150Z 31000KT 17/09 A2988 RMK A01 T01680086  RH  059%=      5-min Rain = 0
KONS 250155Z 00000KT 17/09 A2988 RMK A01 T01650086  RH  060%=      5-min Rain = 0
KONS 250200Z 16003KT 16/09 A2989 RMK A01 T01600092  RH  065%=      5-min Rain = 0
KONS 250205Z 16005KT 15/09 A2989 RMK A01 T01490092  RH  070%=      5-min Rain = 0
KONS 250210Z 16006KT 14/09 A2989 RMK A01 T01440092  RH  072%=      5-min Rain = 0
KONS 250215Z 16006KT 14/09 A2989 RMK A01 T01430092  RH  073%=      5-min Rain = 0
KONS 250220Z 17007KT 14/09 A299 RMK A01 T01410092  RH  074%=      5-min Rain = 0
KONS 250225Z 17007KT 14/09 A299 RMK A01 T01410093  RH  074%=      5-min Rain = 0
KONS 250230Z 18007KT 14/10 A299 RMK A01 T01410095  RH  075%=      5-min Rain = 0
KONS 250235Z 18007KT 14/10 A299 RMK A01 T01400096  RH  076%=      5-min Rain = 0
KONS 250240Z 18007KT 14/10 A299 RMK A01 T01380096  RH  077%=      5-min Rain = 0
KONS 250245Z 18007KT 14/10 A299 RMK A01 T01350097  RH  079%=      5-min Rain = 0
KONS 250250Z 19007KT 13/10 A299 RMK A01 T01320097  RH  081%=      5-min Rain = 0
KONS 250255Z 19007KT 13/10 A299 RMK A01 T01310097  RH  082%=      5-min Rain = 0
KONS 250300Z 19008KT 13/10 A299 RMK A01 T01290098  RH  083%=      5-min Rain = 0
KONS 250305Z 20008KT 13/10 A299 RMK A01 T01290099  RH  083%=      5-min Rain = 0
KONS 250310Z 20008KT 13/10 A299 RMK A01 T01280099  RH  084%=      5-min Rain = 0
KONS 250315Z 20008KT 13/10 A299 RMK A01 T01280098  RH  083%=      5-min Rain = 0
KONS 250320Z 20008KT 13/10 A299 RMK A01 T01280098  RH  083%=      5-min Rain = 0
KONS 250325Z 21008KT 13/10 A299 RMK A01 T01280097  RH  083%=      5-min Rain = 0
KONS 250330Z 21008KT 13/10 A299 RMK A01 T01290097  RH  082%=      5-min Rain = 0
KONS 250335Z 22007KT 13/10 A2991 RMK A01 T01290095  RH  081%=      5-min Rain = 0
KONS 250340Z 22007KT 13/09 A2991 RMK A01 T01290093  RH  080%=      5-min Rain = 0
KONS 250345Z 23007KT 13/09 A2991 RMK A01 T01270092  RH  081%=      5-min Rain = 0
KONS 250350Z 23006KT 12/09 A2991 RMK A01 T01240091  RH  081%=      5-min Rain = 0
KONS 250355Z 23006KT 12/09 A2991 RMK A01 T01210090  RH  082%=      5-min Rain = 0
KONS 250400Z 23006KT 12/09 A2991 RMK A01 T01190089  RH  083%=      5-min Rain = 0
KONS 250405Z 23006KT 12/09 A2991 RMK A01 T01170089  RH  084%=      5-min Rain = 0
KONS 250410Z 23007KT 12/09 A2991 RMK A01 T01160088  RH  085%=      5-min Rain = 0
KONS 250415Z 23007KT 11/09 A2991 RMK A01 T01140088  RH  085%=      5-min Rain = 0
KONS 250420Z 23007KT 11/09 A2991 RMK A01 T01130088  RH  086%=      5-min Rain = 0
KONS 250425Z 22007KT 11/09 A2991 RMK A01 T01140089  RH  086%=      5-min Rain = 0
KONS 250430Z 22006KT 11/09 A2991 RMK A01 T01140089  RH  086%=      5-min Rain = 0
KONS 250435Z 22007KT 11/09 A2991 RMK A01 T01130089  RH  086%=      5-min Rain = 0
KONS 250440Z 22007KT 12/09 A2991 RMK A01 T01150089  RH  086%=      5-min Rain = 0
KONS 250445Z 21006KT 11/09 A2991 RMK A01 T01140088  RH  085%=      5-min Rain = 0
KONS 250450Z 20005KT 11/09 A2991 RMK A01 T01120087  RH  086%=      5-min Rain = 0
KONS 250455Z 20006KT 11/09 A2991 RMK A01 T01100087  RH  087%=      5-min Rain = 0

Page generated in 0.0105 seconds.